sensor_id;sensor_type;location;lat;lon;timestamp;P1;durP1;ratioP1;P2;durP2;ratioP2
10226;SDS011;15634;48.766;2.272;2022-07-22T00:01:38;21.25;;;12.90;;
10226;SDS011;15634;48.766;2.272;2022-07-22T00:04:05;22.83;;;12.50;;
10226;SDS011;15634;48.766;2.272;2022-07-22T00:06:32;22.02;;;14.07;;
10226;SDS011;15634;48.766;2.272;2022-07-22T00:08:59;22.92;;;12.18;;
10226;SDS011;15634;48.766;2.272;2022-07-22T00:11:25;20.15;;;12.18;;
10226;SDS011;15634;48.766;2.272;2022-07-22T00:13:52;20.20;;;12.63;;
10226;SDS011;15634;48.766;2.272;2022-07-22T00:16:19;19.15;;;12.57;;
10226;SDS011;15634;48.766;2.272;2022-07-22T00:18:47;21.13;;;12.95;;
10226;SDS011;15634;48.766;2.272;2022-07-22T00:21:14;20.33;;;11.85;;
10226;SDS011;15634;48.766;2.272;2022-07-22T00:23:41;20.95;;;12.55;;
10226;SDS011;15634;48.766;2.272;2022-07-22T00:26:08;19.58;;;12.65;;
10226;SDS011;15634;48.766;2.272;2022-07-22T00:28:35;20.48;;;12.85;;
10226;SDS011;15634;48.766;2.272;2022-07-22T00:31:02;18.02;;;12.20;;
10226;SDS011;15634;48.766;2.272;2022-07-22T00:33:29;17.23;;;11.98;;
10226;SDS011;15634;48.766;2.272;2022-07-22T00:35:57;19.77;;;13.25;;
10226;SDS011;15634;48.766;2.272;2022-07-22T00:38:24;20.20;;;12.98;;
10226;SDS011;15634;48.766;2.272;2022-07-22T00:40:50;17.85;;;11.57;;
10226;SDS011;15634;48.766;2.272;2022-07-22T00:43:17;21.88;;;12.57;;
10226;SDS011;15634;48.766;2.272;2022-07-22T00:45:44;19.85;;;12.75;;
10226;SDS011;15634;48.766;2.272;2022-07-22T00:48:10;19.50;;;12.10;;
10226;SDS011;15634;48.766;2.272;2022-07-22T00:50:37;17.63;;;12.57;;
10226;SDS011;15634;48.766;2.272;2022-07-22T00:53:06;20.38;;;12.43;;
10226;SDS011;15634;48.766;2.272;2022-07-22T00:55:33;20.13;;;12.50;;
10226;SDS011;15634;48.766;2.272;2022-07-22T00:58:00;18.67;;;12.50;;
10226;SDS011;15634;48.766;2.272;2022-07-22T01:00:28;18.80;;;11.85;;
10226;SDS011;15634;48.766;2.272;2022-07-22T01:02:54;21.77;;;12.70;;
10226;SDS011;15634;48.766;2.272;2022-07-22T01:05:21;18.58;;;11.43;;
10226;SDS011;15634;48.766;2.272;2022-07-22T01:07:48;19.38;;;12.65;;
10226;SDS011;15634;48.766;2.272;2022-07-22T01:10:16;16.27;;;12.52;;
10226;SDS011;15634;48.766;2.272;2022-07-22T01:12:43;23.02;;;12.77;;
10226;SDS011;15634;48.766;2.272;2022-07-22T01:15:10;18.50;;;12.20;;
10226;SDS011;15634;48.766;2.272;2022-07-22T01:17:37;22.27;;;12.68;;
10226;SDS011;15634;48.766;2.272;2022-07-22T01:20:06;17.48;;;12.43;;
10226;SDS011;15634;48.766;2.272;2022-07-22T01:22:34;19.13;;;12.60;;
10226;SDS011;15634;48.766;2.272;2022-07-22T01:25:01;18.42;;;12.25;;
10226;SDS011;15634;48.766;2.272;2022-07-22T01:27:27;19.27;;;12.27;;
10226;SDS011;15634;48.766;2.272;2022-07-22T01:29:55;19.15;;;12.20;;
10226;SDS011;15634;48.766;2.272;2022-07-22T01:32:22;18.10;;;11.05;;
10226;SDS011;15634;48.766;2.272;2022-07-22T01:34:48;17.67;;;11.90;;
10226;SDS011;15634;48.766;2.272;2022-07-22T01:37:17;19.45;;;12.80;;
10226;SDS011;15634;48.766;2.272;2022-07-22T01:39:43;21.27;;;11.95;;
10226;SDS011;15634;48.766;2.272;2022-07-22T01:42:10;18.67;;;12.35;;
10226;SDS011;15634;48.766;2.272;2022-07-22T01:44:37;21.40;;;12.43;;
10226;SDS011;15634;48.766;2.272;2022-07-22T01:47:04;18.55;;;11.88;;
10226;SDS011;15634;48.766;2.272;2022-07-22T01:49:31;21.38;;;12.38;;
10226;SDS011;15634;48.766;2.272;2022-07-22T01:51:58;20.33;;;12.02;;
10226;SDS011;15634;48.766;2.272;2022-07-22T01:54:30;18.48;;;11.52;;
10226;SDS011;15634;48.766;2.272;2022-07-22T01:56:57;16.85;;;11.32;;
10226;SDS011;15634;48.766;2.272;2022-07-22T01:59:23;18.63;;;11.60;;
10226;SDS011;15634;48.766;2.272;2022-07-22T02:01:50;26.02;;;11.48;;
10226;SDS011;15634;48.766;2.272;2022-07-22T02:04:17;19.60;;;12.68;;
10226;SDS011;15634;48.766;2.272;2022-07-22T02:06:44;23.15;;;11.70;;
10226;SDS011;15634;48.766;2.272;2022-07-22T02:09:10;18.83;;;11.60;;
10226;SDS011;15634;48.766;2.272;2022-07-22T02:11:40;19.60;;;11.10;;
10226;SDS011;15634;48.766;2.272;2022-07-22T02:14:08;17.67;;;11.57;;
10226;SDS011;15634;48.766;2.272;2022-07-22T02:16:34;18.27;;;11.85;;
10226;SDS011;15634;48.766;2.272;2022-07-22T02:19:01;15.45;;;11.60;;
10226;SDS011;15634;48.766;2.272;2022-07-22T02:21:28;16.92;;;11.57;;
10226;SDS011;15634;48.766;2.272;2022-07-22T02:23:55;21.58;;;11.73;;
10226;SDS011;15634;48.766;2.272;2022-07-22T02:26:21;18.70;;;11.32;;
10226;SDS011;15634;48.766;2.272;2022-07-22T02:28:50;19.10;;;11.27;;
10226;SDS011;15634;48.766;2.272;2022-07-22T02:31:17;20.88;;;11.30;;
10226;SDS011;15634;48.766;2.272;2022-07-22T02:33:46;19.17;;;11.55;;
10226;SDS011;15634;48.766;2.272;2022-07-22T02:36:12;16.35;;;11.15;;
10226;SDS011;15634;48.766;2.272;2022-07-22T02:38:39;16.05;;;11.32;;
10226;SDS011;15634;48.766;2.272;2022-07-22T02:41:06;15.98;;;10.57;;
10226;SDS011;15634;48.766;2.272;2022-07-22T02:43:32;16.77;;;11.02;;
10226;SDS011;15634;48.766;2.272;2022-07-22T02:46:01;17.67;;;10.90;;
10226;SDS011;15634;48.766;2.272;2022-07-22T02:48:27;15.13;;;10.75;;
10226;SDS011;15634;48.766;2.272;2022-07-22T02:50:55;14.10;;;10.52;;
10226;SDS011;15634;48.766;2.272;2022-07-22T02:53:22;16.33;;;11.32;;
10226;SDS011;15634;48.766;2.272;2022-07-22T02:55:48;22.23;;;10.02;;
10226;SDS011;15634;48.766;2.272;2022-07-22T02:58:15;18.40;;;10.70;;
10226;SDS011;15634;48.766;2.272;2022-07-22T03:00:42;18.58;;;10.32;;
10226;SDS011;15634;48.766;2.272;2022-07-22T03:03:11;16.98;;;10.73;;
10226;SDS011;15634;48.766;2.272;2022-07-22T03:05:38;15.88;;;10.98;;
10226;SDS011;15634;48.766;2.272;2022-07-22T03:08:05;16.55;;;10.55;;
10226;SDS011;15634;48.766;2.272;2022-07-22T03:10:32;17.52;;;10.73;;
10226;SDS011;15634;48.766;2.272;2022-07-22T03:12:58;16.27;;;11.02;;
10226;SDS011;15634;48.766;2.272;2022-07-22T03:15:25;17.02;;;10.52;;
10226;SDS011;15634;48.766;2.272;2022-07-22T03:17:51;19.00;;;10.90;;
10226;SDS011;15634;48.766;2.272;2022-07-22T03:20:20;14.60;;;10.40;;
10226;SDS011;15634;48.766;2.272;2022-07-22T03:22:47;16.40;;;10.23;;
10226;SDS011;15634;48.766;2.272;2022-07-22T03:25:14;19.17;;;10.15;;
10226;SDS011;15634;48.766;2.272;2022-07-22T03:27:41;15.70;;;10.52;;
10226;SDS011;15634;48.766;2.272;2022-07-22T03:30:08;16.70;;;10.60;;
10226;SDS011;15634;48.766;2.272;2022-07-22T03:32:35;16.92;;;10.65;;
10226;SDS011;15634;48.766;2.272;2022-07-22T03:35:02;18.67;;;11.05;;
10226;SDS011;15634;48.766;2.272;2022-07-22T03:37:31;15.18;;;10.13;;
10226;SDS011;15634;48.766;2.272;2022-07-22T03:39:58;18.58;;;10.63;;
10226;SDS011;15634;48.766;2.272;2022-07-22T03:42:24;15.95;;;9.73;;
10226;SDS011;15634;48.766;2.272;2022-07-22T03:44:51;20.00;;;10.18;;
10226;SDS011;15634;48.766;2.272;2022-07-22T03:47:18;16.60;;;10.07;;
10226;SDS011;15634;48.766;2.272;2022-07-22T03:49:45;15.45;;;10.60;;
10226;SDS011;15634;48.766;2.272;2022-07-22T03:52:11;18.55;;;10.95;;
10226;SDS011;15634;48.766;2.272;2022-07-22T03:54:40;18.30;;;11.00;;
10226;SDS011;15634;48.766;2.272;2022-07-22T03:57:07;15.35;;;9.70;;
10226;SDS011;15634;48.766;2.272;2022-07-22T03:59:33;20.55;;;10.82;;
10226;SDS011;15634;48.766;2.272;2022-07-22T04:02:00;15.05;;;10.48;;
10226;SDS011;15634;48.766;2.272;2022-07-22T04:04:27;15.80;;;9.77;;
10226;SDS011;15634;48.766;2.272;2022-07-22T04:06:54;16.15;;;10.20;;
10226;SDS011;15634;48.766;2.272;2022-07-22T04:09:21;15.27;;;10.30;;
10226;SDS011;15634;48.766;2.272;2022-07-22T04:11:49;14.20;;;9.45;;
10226;SDS011;15634;48.766;2.272;2022-07-22T04:14:17;16.67;;;10.40;;
10226;SDS011;15634;48.766;2.272;2022-07-22T04:16:43;17.02;;;9.82;;
10226;SDS011;15634;48.766;2.272;2022-07-22T04:19:10;15.10;;;9.75;;
10226;SDS011;15634;48.766;2.272;2022-07-22T04:21:37;15.40;;;9.85;;
10226;SDS011;15634;48.766;2.272;2022-07-22T04:24:04;15.35;;;10.63;;
10226;SDS011;15634;48.766;2.272;2022-07-22T04:26:31;19.10;;;11.25;;
10226;SDS011;15634;48.766;2.272;2022-07-22T04:28:59;16.55;;;10.57;;
10226;SDS011;15634;48.766;2.272;2022-07-22T04:31:25;15.70;;;10.00;;
10226;SDS011;15634;48.766;2.272;2022-07-22T04:33:52;17.45;;;9.85;;
10226;SDS011;15634;48.766;2.272;2022-07-22T04:36:19;14.93;;;9.95;;
10226;SDS011;15634;48.766;2.272;2022-07-22T04:38:45;14.48;;;10.18;;
10226;SDS011;15634;48.766;2.272;2022-07-22T04:41:12;17.10;;;10.32;;
10226;SDS011;15634;48.766;2.272;2022-07-22T04:43:38;15.60;;;9.98;;
10226;SDS011;15634;48.766;2.272;2022-07-22T04:46:06;17.42;;;9.85;;
10226;SDS011;15634;48.766;2.272;2022-07-22T04:48:33;15.05;;;9.60;;
10226;SDS011;15634;48.766;2.272;2022-07-22T04:51:00;17.02;;;9.82;;
10226;SDS011;15634;48.766;2.272;2022-07-22T04:53:27;17.30;;;9.07;;
10226;SDS011;15634;48.766;2.272;2022-07-22T04:55:54;13.57;;;9.23;;
10226;SDS011;15634;48.766;2.272;2022-07-22T04:58:20;14.95;;;9.30;;
10226;SDS011;15634;48.766;2.272;2022-07-22T05:00:47;15.82;;;9.93;;
10226;SDS011;15634;48.766;2.272;2022-07-22T05:03:15;15.95;;;9.57;;
10226;SDS011;15634;48.766;2.272;2022-07-22T05:05:42;16.83;;;9.35;;
10226;SDS011;15634;48.766;2.272;2022-07-22T05:08:09;15.45;;;9.75;;
10226;SDS011;15634;48.766;2.272;2022-07-22T05:10:35;15.32;;;9.50;;
10226;SDS011;15634;48.766;2.272;2022-07-22T05:13:03;14.50;;;9.50;;
10226;SDS011;15634;48.766;2.272;2022-07-22T05:15:30;16.08;;;9.32;;
10226;SDS011;15634;48.766;2.272;2022-07-22T05:17:57;15.30;;;10.02;;
10226;SDS011;15634;48.766;2.272;2022-07-22T05:20:25;16.65;;;9.85;;
10226;SDS011;15634;48.766;2.272;2022-07-22T05:22:52;16.65;;;9.70;;
10226;SDS011;15634;48.766;2.272;2022-07-22T05:25:19;16.52;;;9.43;;
10226;SDS011;15634;48.766;2.272;2022-07-22T05:27:49;17.85;;;9.85;;
10226;SDS011;15634;48.766;2.272;2022-07-22T05:30:16;15.32;;;9.85;;
10226;SDS011;15634;48.766;2.272;2022-07-22T05:32:43;17.20;;;10.00;;
10226;SDS011;15634;48.766;2.272;2022-07-22T05:35:10;17.10;;;9.13;;
10226;SDS011;15634;48.766;2.272;2022-07-22T05:37:38;15.85;;;8.82;;
10226;SDS011;15634;48.766;2.272;2022-07-22T05:40:05;13.63;;;9.32;;
10226;SDS011;15634;48.766;2.272;2022-07-22T05:42:32;14.43;;;8.52;;
10226;SDS011;15634;48.766;2.272;2022-07-22T05:44:59;16.95;;;9.32;;
10226;SDS011;15634;48.766;2.272;2022-07-22T05:47:26;16.15;;;9.70;;
10226;SDS011;15634;48.766;2.272;2022-07-22T05:49:52;15.13;;;9.23;;
10226;SDS011;15634;48.766;2.272;2022-07-22T05:52:19;17.02;;;9.30;;
10226;SDS011;15634;48.766;2.272;2022-07-22T05:54:48;17.88;;;8.82;;
10226;SDS011;15634;48.766;2.272;2022-07-22T05:57:14;15.88;;;9.88;;
10226;SDS011;15634;48.766;2.272;2022-07-22T05:59:41;16.02;;;10.02;;
10226;SDS011;15634;48.766;2.272;2022-07-22T06:02:08;13.15;;;8.90;;
10226;SDS011;15634;48.766;2.272;2022-07-22T06:04:35;14.30;;;9.68;;
10226;SDS011;15634;48.766;2.272;2022-07-22T06:07:02;12.43;;;8.98;;
10226;SDS011;15634;48.766;2.272;2022-07-22T06:09:31;16.30;;;9.65;;
10226;SDS011;15634;48.766;2.272;2022-07-22T06:11:59;15.70;;;9.13;;
10226;SDS011;15634;48.766;2.272;2022-07-22T06:14:29;14.23;;;9.32;;
10226;SDS011;15634;48.766;2.272;2022-07-22T06:16:56;15.55;;;9.07;;
10226;SDS011;15634;48.766;2.272;2022-07-22T06:19:25;15.40;;;8.98;;
10226;SDS011;15634;48.766;2.272;2022-07-22T06:21:54;14.60;;;9.38;;
10226;SDS011;15634;48.766;2.272;2022-07-22T06:24:21;15.95;;;9.63;;
10226;SDS011;15634;48.766;2.272;2022-07-22T06:26:47;14.95;;;9.30;;
10226;SDS011;15634;48.766;2.272;2022-07-22T06:29:19;14.95;;;9.95;;
10226;SDS011;15634;48.766;2.272;2022-07-22T06:31:46;16.15;;;9.80;;
10226;SDS011;15634;48.766;2.272;2022-07-22T06:34:13;16.05;;;9.25;;
10226;SDS011;15634;48.766;2.272;2022-07-22T06:36:40;13.35;;;8.57;;
10226;SDS011;15634;48.766;2.272;2022-07-22T06:39:07;16.55;;;9.70;;
10226;SDS011;15634;48.766;2.272;2022-07-22T06:41:34;13.93;;;9.23;;
10226;SDS011;15634;48.766;2.272;2022-07-22T06:44:00;16.63;;;10.40;;
10226;SDS011;15634;48.766;2.272;2022-07-22T06:46:28;13.05;;;9.13;;
10226;SDS011;15634;48.766;2.272;2022-07-22T06:48:55;15.30;;;8.88;;
10226;SDS011;15634;48.766;2.272;2022-07-22T06:51:22;17.33;;;9.98;;
10226;SDS011;15634;48.766;2.272;2022-07-22T06:53:48;16.58;;;9.52;;
10226;SDS011;15634;48.766;2.272;2022-07-22T06:56:15;16.13;;;9.70;;
10226;SDS011;15634;48.766;2.272;2022-07-22T06:58:42;16.80;;;9.80;;
10226;SDS011;15634;48.766;2.272;2022-07-22T07:01:08;18.65;;;10.35;;
10226;SDS011;15634;48.766;2.272;2022-07-22T07:03:38;19.15;;;9.25;;
10226;SDS011;15634;48.766;2.272;2022-07-22T07:06:06;15.27;;;9.13;;
10226;SDS011;15634;48.766;2.272;2022-07-22T07:08:34;19.02;;;9.88;;
10226;SDS011;15634;48.766;2.272;2022-07-22T07:11:00;14.38;;;9.85;;
10226;SDS011;15634;48.766;2.272;2022-07-22T07:13:27;17.30;;;9.90;;
10226;SDS011;15634;48.766;2.272;2022-07-22T07:15:54;16.88;;;9.40;;
10226;SDS011;15634;48.766;2.272;2022-07-22T07:18:20;12.77;;;9.30;;
10226;SDS011;15634;48.766;2.272;2022-07-22T07:20:48;13.75;;;7.97;;
10226;SDS011;15634;48.766;2.272;2022-07-22T07:23:15;16.55;;;9.85;;
10226;SDS011;15634;48.766;2.272;2022-07-22T07:25:42;18.33;;;9.32;;
10226;SDS011;15634;48.766;2.272;2022-07-22T07:28:08;14.23;;;7.85;;
10226;SDS011;15634;48.766;2.272;2022-07-22T07:30:35;14.27;;;9.38;;
10226;SDS011;15634;48.766;2.272;2022-07-22T07:33:02;18.95;;;9.73;;
10226;SDS011;15634;48.766;2.272;2022-07-22T07:35:29;15.05;;;8.63;;
10226;SDS011;15634;48.766;2.272;2022-07-22T07:37:57;15.80;;;9.18;;
10226;SDS011;15634;48.766;2.272;2022-07-22T07:40:24;15.52;;;8.68;;
10226;SDS011;15634;48.766;2.272;2022-07-22T07:42:50;16.30;;;9.38;;
10226;SDS011;15634;48.766;2.272;2022-07-22T07:45:17;15.55;;;9.63;;
10226;SDS011;15634;48.766;2.272;2022-07-22T07:47:44;14.00;;;8.63;;
10226;SDS011;15634;48.766;2.272;2022-07-22T07:50:10;15.43;;;9.05;;
10226;SDS011;15634;48.766;2.272;2022-07-22T07:52:37;14.00;;;8.95;;
10226;SDS011;15634;48.766;2.272;2022-07-22T07:55:06;17.23;;;8.73;;
10226;SDS011;15634;48.766;2.272;2022-07-22T07:57:34;16.80;;;9.57;;
10226;SDS011;15634;48.766;2.272;2022-07-22T08:00:01;14.93;;;9.07;;
10226;SDS011;15634;48.766;2.272;2022-07-22T08:02:31;18.70;;;9.60;;
10226;SDS011;15634;48.766;2.272;2022-07-22T08:04:58;13.77;;;9.07;;
10226;SDS011;15634;48.766;2.272;2022-07-22T08:07:26;17.25;;;8.63;;
10226;SDS011;15634;48.766;2.272;2022-07-22T08:09:53;15.65;;;8.75;;
10226;SDS011;15634;48.766;2.272;2022-07-22T08:12:21;13.20;;;8.50;;
10226;SDS011;15634;48.766;2.272;2022-07-22T08:14:47;15.80;;;8.73;;
10226;SDS011;15634;48.766;2.272;2022-07-22T08:17:14;14.68;;;8.02;;
10226;SDS011;15634;48.766;2.272;2022-07-22T08:19:41;14.85;;;8.38;;
10226;SDS011;15634;48.766;2.272;2022-07-22T08:22:08;17.45;;;8.93;;
10226;SDS011;15634;48.766;2.272;2022-07-22T08:24:34;17.77;;;8.52;;
10226;SDS011;15634;48.766;2.272;2022-07-22T08:27:01;12.07;;;8.30;;
10226;SDS011;15634;48.766;2.272;2022-07-22T08:29:29;15.73;;;9.55;;
10226;SDS011;15634;48.766;2.272;2022-07-22T08:31:56;16.35;;;8.98;;
10226;SDS011;15634;48.766;2.272;2022-07-22T08:34:23;21.30;;;10.00;;
10226;SDS011;15634;48.766;2.272;2022-07-22T08:36:49;17.52;;;9.20;;
10226;SDS011;15634;48.766;2.272;2022-07-22T08:39:16;12.98;;;8.60;;
10226;SDS011;15634;48.766;2.272;2022-07-22T08:41:43;14.48;;;8.82;;
10226;SDS011;15634;48.766;2.272;2022-07-22T08:44:10;15.38;;;9.32;;
10226;SDS011;15634;48.766;2.272;2022-07-22T08:46:38;17.25;;;10.13;;
10226;SDS011;15634;48.766;2.272;2022-07-22T08:49:04;14.27;;;8.90;;
10226;SDS011;15634;48.766;2.272;2022-07-22T08:51:31;15.95;;;9.07;;
10226;SDS011;15634;48.766;2.272;2022-07-22T08:53:58;18.17;;;9.27;;
10226;SDS011;15634;48.766;2.272;2022-07-22T08:56:25;13.55;;;9.25;;
10226;SDS011;15634;48.766;2.272;2022-07-22T08:58:51;13.75;;;8.75;;
10226;SDS011;15634;48.766;2.272;2022-07-22T09:01:18;17.50;;;9.70;;
10226;SDS011;15634;48.766;2.272;2022-07-22T09:03:47;21.85;;;9.50;;
10226;SDS011;15634;48.766;2.272;2022-07-22T09:06:14;19.40;;;8.60;;
10226;SDS011;15634;48.766;2.272;2022-07-22T09:08:49;15.00;;;9.00;;
10226;SDS011;15634;48.766;2.272;2022-07-22T09:11:17;20.67;;;8.18;;
10226;SDS011;15634;48.766;2.272;2022-07-22T09:13:44;14.25;;;9.70;;
10226;SDS011;15634;48.766;2.272;2022-07-22T09:16:11;15.02;;;8.23;;
10226;SDS011;15634;48.766;2.272;2022-07-22T09:18:47;19.38;;;8.10;;
10226;SDS011;15634;48.766;2.272;2022-07-22T09:21:15;18.08;;;9.52;;
10226;SDS011;15634;48.766;2.272;2022-07-22T09:23:41;16.02;;;9.00;;
10226;SDS011;15634;48.766;2.272;2022-07-22T09:26:09;19.77;;;9.55;;
10226;SDS011;15634;48.766;2.272;2022-07-22T09:28:56;17.40;;;8.93;;
10226;SDS011;15634;48.766;2.272;2022-07-22T09:31:23;13.10;;;7.50;;
10226;SDS011;15634;48.766;2.272;2022-07-22T09:33:52;14.63;;;8.75;;
10226;SDS011;15634;48.766;2.272;2022-07-22T09:36:20;13.15;;;8.18;;
10226;SDS011;15634;48.766;2.272;2022-07-22T09:38:55;12.13;;;7.97;;
10226;SDS011;15634;48.766;2.272;2022-07-22T09:41:22;11.38;;;8.00;;
10226;SDS011;15634;48.766;2.272;2022-07-22T09:43:49;12.63;;;8.43;;
10226;SDS011;15634;48.766;2.272;2022-07-22T09:46:16;14.45;;;8.52;;
10226;SDS011;15634;48.766;2.272;2022-07-22T09:48:43;16.48;;;9.18;;
10226;SDS011;15634;48.766;2.272;2022-07-22T09:51:09;12.75;;;8.48;;
10226;SDS011;15634;48.766;2.272;2022-07-22T09:53:36;14.95;;;8.65;;
10226;SDS011;15634;48.766;2.272;2022-07-22T09:56:04;12.30;;;8.20;;
10226;SDS011;15634;48.766;2.272;2022-07-22T09:58:32;13.52;;;8.48;;
10226;SDS011;15634;48.766;2.272;2022-07-22T10:00:59;13.55;;;9.02;;
10226;SDS011;15634;48.766;2.272;2022-07-22T10:03:29;11.30;;;7.95;;
10226;SDS011;15634;48.766;2.272;2022-07-22T10:05:57;13.23;;;8.27;;
10226;SDS011;15634;48.766;2.272;2022-07-22T10:08:25;14.48;;;8.57;;
10226;SDS011;15634;48.766;2.272;2022-07-22T10:10:53;11.85;;;8.80;;
10226;SDS011;15634;48.766;2.272;2022-07-22T10:13:21;16.55;;;8.23;;
10226;SDS011;15634;48.766;2.272;2022-07-22T10:15:48;11.15;;;8.63;;
10226;SDS011;15634;48.766;2.272;2022-07-22T10:18:15;11.00;;;7.38;;
10226;SDS011;15634;48.766;2.272;2022-07-22T10:20:43;14.80;;;8.93;;
10226;SDS011;15634;48.766;2.272;2022-07-22T10:23:10;15.57;;;8.95;;
10226;SDS011;15634;48.766;2.272;2022-07-22T10:25:51;14.30;;;8.68;;
10226;SDS011;15634;48.766;2.272;2022-07-22T10:28:24;13.27;;;9.48;;
10226;SDS011;15634;48.766;2.272;2022-07-22T10:30:51;15.93;;;9.00;;
10226;SDS011;15634;48.766;2.272;2022-07-22T10:33:18;15.55;;;9.02;;
10226;SDS011;15634;48.766;2.272;2022-07-22T10:35:53;17.33;;;10.20;;
10226;SDS011;15634;48.766;2.272;2022-07-22T10:38:21;16.98;;;10.02;;
10226;SDS011;15634;48.766;2.272;2022-07-22T10:40:49;13.20;;;9.80;;
10226;SDS011;15634;48.766;2.272;2022-07-22T10:43:17;18.38;;;10.45;;
10226;SDS011;15634;48.766;2.272;2022-07-22T10:45:47;17.40;;;10.30;;
10226;SDS011;15634;48.766;2.272;2022-07-22T10:48:16;18.13;;;11.68;;
10226;SDS011;15634;48.766;2.272;2022-07-22T10:50:51;19.25;;;11.70;;
10226;SDS011;15634;48.766;2.272;2022-07-22T10:53:41;17.17;;;11.25;;
10226;SDS011;15634;48.766;2.272;2022-07-22T10:56:13;17.63;;;12.05;;
10226;SDS011;15634;48.766;2.272;2022-07-22T10:58:46;20.10;;;11.88;;
10226;SDS011;15634;48.766;2.272;2022-07-22T11:01:20;17.48;;;11.93;;
10226;SDS011;15634;48.766;2.272;2022-07-22T11:03:48;15.10;;;11.38;;
10226;SDS011;15634;48.766;2.272;2022-07-22T11:06:19;15.80;;;11.50;;
10226;SDS011;15634;48.766;2.272;2022-07-22T11:08:49;16.25;;;11.65;;
10226;SDS011;15634;48.766;2.272;2022-07-22T11:11:16;18.55;;;11.23;;
10226;SDS011;15634;48.766;2.272;2022-07-22T11:13:43;20.38;;;11.60;;
10226;SDS011;15634;48.766;2.272;2022-07-22T11:16:15;16.17;;;10.82;;
10226;SDS011;15634;48.766;2.272;2022-07-22T11:18:47;18.65;;;11.45;;
10226;SDS011;15634;48.766;2.272;2022-07-22T11:21:18;18.17;;;11.15;;
10226;SDS011;15634;48.766;2.272;2022-07-22T11:23:47;16.60;;;11.23;;
10226;SDS011;15634;48.766;2.272;2022-07-22T11:26:15;19.02;;;12.32;;
10226;SDS011;15634;48.766;2.272;2022-07-22T11:28:42;17.25;;;12.05;;
10226;SDS011;15634;48.766;2.272;2022-07-22T11:31:13;17.40;;;10.90;;
10226;SDS011;15634;48.766;2.272;2022-07-22T11:33:42;20.67;;;11.10;;
10226;SDS011;15634;48.766;2.272;2022-07-22T11:36:09;19.33;;;12.30;;
10226;SDS011;15634;48.766;2.272;2022-07-22T11:38:44;20.48;;;12.38;;
10226;SDS011;15634;48.766;2.272;2022-07-22T11:41:13;16.52;;;11.95;;
10226;SDS011;15634;48.766;2.272;2022-07-22T11:43:40;17.15;;;11.80;;
10226;SDS011;15634;48.766;2.272;2022-07-22T11:46:08;15.13;;;10.70;;
10226;SDS011;15634;48.766;2.272;2022-07-22T11:48:34;14.80;;;10.45;;
10226;SDS011;15634;48.766;2.272;2022-07-22T11:51:04;16.23;;;10.07;;
10226;SDS011;15634;48.766;2.272;2022-07-22T11:53:32;15.70;;;10.30;;
10226;SDS011;15634;48.766;2.272;2022-07-22T11:55:59;15.07;;;9.77;;
10226;SDS011;15634;48.766;2.272;2022-07-22T11:58:33;16.45;;;10.18;;
10226;SDS011;15634;48.766;2.272;2022-07-22T12:01:03;16.08;;;9.77;;
10226;SDS011;15634;48.766;2.272;2022-07-22T12:03:31;15.57;;;10.68;;
10226;SDS011;15634;48.766;2.272;2022-07-22T12:05:58;18.50;;;11.68;;
10226;SDS011;15634;48.766;2.272;2022-07-22T12:08:27;14.35;;;9.95;;
10226;SDS011;15634;48.766;2.272;2022-07-22T12:10:54;14.13;;;10.40;;
10226;SDS011;15634;48.766;2.272;2022-07-22T12:13:21;14.02;;;10.25;;
10226;SDS011;15634;48.766;2.272;2022-07-22T12:15:48;14.00;;;9.93;;
10226;SDS011;15634;48.766;2.272;2022-07-22T12:18:15;15.57;;;10.07;;
10226;SDS011;15634;48.766;2.272;2022-07-22T12:20:43;15.57;;;10.32;;
10226;SDS011;15634;48.766;2.272;2022-07-22T12:23:10;18.73;;;12.20;;
10226;SDS011;15634;48.766;2.272;2022-07-22T12:25:50;15.07;;;10.65;;
10226;SDS011;15634;48.766;2.272;2022-07-22T12:28:17;19.67;;;11.05;;
10226;SDS011;15634;48.766;2.272;2022-07-22T12:30:44;13.55;;;9.77;;
10226;SDS011;15634;48.766;2.272;2022-07-22T12:33:12;16.38;;;10.25;;
10226;SDS011;15634;48.766;2.272;2022-07-22T12:35:40;13.20;;;10.32;;
10226;SDS011;15634;48.766;2.272;2022-07-22T12:38:06;19.10;;;12.23;;
10226;SDS011;15634;48.766;2.272;2022-07-22T12:40:34;15.95;;;9.80;;
10226;SDS011;15634;48.766;2.272;2022-07-22T12:43:03;18.80;;;12.65;;
10226;SDS011;15634;48.766;2.272;2022-07-22T12:45:31;12.77;;;9.25;;
10226;SDS011;15634;48.766;2.272;2022-07-22T12:48:04;15.80;;;9.45;;
10226;SDS011;15634;48.766;2.272;2022-07-22T12:50:33;13.07;;;9.40;;
10226;SDS011;15634;48.766;2.272;2022-07-22T12:53:02;13.90;;;9.70;;
10226;SDS011;15634;48.766;2.272;2022-07-22T12:55:31;16.20;;;9.52;;
10226;SDS011;15634;48.766;2.272;2022-07-22T12:57:58;16.02;;;9.73;;
10226;SDS011;15634;48.766;2.272;2022-07-22T13:00:27;16.33;;;9.73;;
10226;SDS011;15634;48.766;2.272;2022-07-22T13:02:55;17.48;;;10.60;;
10226;SDS011;15634;48.766;2.272;2022-07-22T13:05:21;13.55;;;9.90;;
10226;SDS011;15634;48.766;2.272;2022-07-22T13:07:49;12.40;;;9.68;;
10226;SDS011;15634;48.766;2.272;2022-07-22T13:10:15;13.82;;;9.23;;
10226;SDS011;15634;48.766;2.272;2022-07-22T13:12:42;15.30;;;9.40;;
10226;SDS011;15634;48.766;2.272;2022-07-22T13:15:09;12.73;;;9.85;;
10226;SDS011;15634;48.766;2.272;2022-07-22T13:17:38;14.90;;;9.68;;
10226;SDS011;15634;48.766;2.272;2022-07-22T13:20:05;15.75;;;11.10;;
10226;SDS011;15634;48.766;2.272;2022-07-22T13:22:33;17.02;;;10.63;;
10226;SDS011;15634;48.766;2.272;2022-07-22T13:24:59;16.75;;;10.63;;
10226;SDS011;15634;48.766;2.272;2022-07-22T13:27:26;13.65;;;9.90;;
10226;SDS011;15634;48.766;2.272;2022-07-22T13:29:52;14.18;;;10.20;;
10226;SDS011;15634;48.766;2.272;2022-07-22T13:32:19;15.50;;;11.15;;
10226;SDS011;15634;48.766;2.272;2022-07-22T13:34:47;16.33;;;11.10;;
10226;SDS011;15634;48.766;2.272;2022-07-22T13:37:13;14.45;;;10.05;;
10226;SDS011;15634;48.766;2.272;2022-07-22T13:39:40;17.77;;;9.90;;
10226;SDS011;15634;48.766;2.272;2022-07-22T13:42:07;13.80;;;9.98;;
10226;SDS011;15634;48.766;2.272;2022-07-22T13:44:34;15.65;;;9.70;;
10226;SDS011;15634;48.766;2.272;2022-07-22T13:47:01;16.25;;;9.73;;
10226;SDS011;15634;48.766;2.272;2022-07-22T13:49:33;19.90;;;11.07;;
10226;SDS011;15634;48.766;2.272;2022-07-22T13:52:02;17.58;;;11.93;;
10226;SDS011;15634;48.766;2.272;2022-07-22T13:54:29;18.23;;;10.75;;
10226;SDS011;15634;48.766;2.272;2022-07-22T13:56:56;16.25;;;11.10;;
10226;SDS011;15634;48.766;2.272;2022-07-22T13:59:23;17.88;;;12.10;;
10226;SDS011;15634;48.766;2.272;2022-07-22T14:01:49;19.23;;;12.35;;
10226;SDS011;15634;48.766;2.272;2022-07-22T14:04:16;13.90;;;10.82;;
10226;SDS011;15634;48.766;2.272;2022-07-22T14:06:43;21.75;;;13.45;;
10226;SDS011;15634;48.766;2.272;2022-07-22T14:09:11;20.08;;;13.68;;
10226;SDS011;15634;48.766;2.272;2022-07-22T14:11:38;20.23;;;12.23;;
10226;SDS011;15634;48.766;2.272;2022-07-22T14:14:05;18.75;;;13.55;;
10226;SDS011;15634;48.766;2.272;2022-07-22T14:16:32;16.35;;;12.07;;
10226;SDS011;15634;48.766;2.272;2022-07-22T14:18:59;20.83;;;12.70;;
10226;SDS011;15634;48.766;2.272;2022-07-22T14:21:26;19.73;;;12.07;;
10226;SDS011;15634;48.766;2.272;2022-07-22T14:23:52;17.52;;;11.70;;
10226;SDS011;15634;48.766;2.272;2022-07-22T14:26:20;19.42;;;13.25;;
10226;SDS011;15634;48.766;2.272;2022-07-22T14:28:47;15.18;;;10.98;;
10226;SDS011;15634;48.766;2.272;2022-07-22T14:31:14;19.83;;;13.02;;